Pagrindinis puslapis
METAR-TAF:

METAR-TAF

Oro uostai :

Armenija, Kolumbija

platuma: 04-30N, ilguma: 075-43W, Aukštis: 1204 m

Dabartinis oras

Ataskaita buvo paskelbta 14 valandos ir 32 minutes, ne 19:00 UTC
Vėjas 4 kt iš Pietų/Pietryčių
Temperatūra 26°C
Drėgmė 70%
Slėgis 1018 hPa
Matomumas 10 km arba daugiau
Su prošvaistėmis ne aukštis 2000 ft
Išsisklaidę debesys ne aukštis 10000 ft

METAR: SKAR 111900Z 16004KT 9999 BKN020 SCT100 26/20 A3005 REDZ

Laikas: 04:32 (09:32 UTC)


TAF: trūkstamas

Orai ataskaitas ir orų prognozės (METAR, TAF).

turimą stotys yra geltonos ir raudonos taškus žemėlapyje.

Perkelti pele per norėdami pamatyti stoties vardą.

Tada spustelėkite, norėdami matyti oro stebėjimo ir prognozės.

Norėdami pakeisti žemėlapį: spustelėkite ant žalios mygtukų su juodo kryžiaus žemyn,; žalią mygtuką su brūkšneliu, jei norite nutolinti; arba žalių rodyklių gretimoms žemėlapius.


METAR-TAF: